createdAt,value
2018-01-04T00:00:32.699Z,39.9
2018-01-04T00:01:32.615Z,39.5
2018-01-04T00:02:32.522Z,39.2
2018-01-04T00:03:32.440Z,39.5
2018-01-04T00:04:32.380Z,39.5
2018-01-04T00:05:32.303Z,39.6
2018-01-04T00:06:32.205Z,39.9
2018-01-04T00:07:32.147Z,39.8
2018-01-04T00:08:32.049Z,40.1
2018-01-04T00:09:31.969Z,40.1
2018-01-04T00:10:31.916Z,40.2
2018-01-04T00:11:31.833Z,40.4
2018-01-04T00:12:31.736Z,40.4
2018-01-04T00:13:31.657Z,40.7
2018-01-04T00:14:31.599Z,40.8
2018-01-04T00:15:31.501Z,40.8
2018-01-04T00:16:31.441Z,40.9
2018-01-04T00:17:31.365Z,41
2018-01-04T00:18:31.267Z,41.2
2018-01-04T00:19:31.187Z,41.3
2018-01-04T00:20:31.133Z,41.3
2018-01-04T00:21:31.051Z,41.4
2018-01-04T00:22:30.959Z,41.5
2018-01-04T00:23:30.895Z,41.7
2018-01-04T00:24:30.796Z,41.8
2018-01-04T00:25:30.717Z,41.9
2018-01-04T00:26:30.662Z,42
2018-01-04T00:27:30.579Z,42
2018-01-04T00:28:30.484Z,42.2
2018-01-04T00:29:30.407Z,42.3
2018-01-04T00:30:30.345Z,42.3
2018-01-04T00:31:30.267Z,42.4
2018-01-04T00:32:30.169Z,42.6
2018-01-04T00:33:30.091Z,42.7
2018-01-04T00:34:30.083Z,42.8
2018-01-04T00:35:29.954Z,42.8
2018-01-04T00:36:29.858Z,42.9
2018-01-04T00:37:29.778Z,43
2018-01-04T00:38:29.717Z,43.1
2018-01-04T00:39:29.623Z,43.2
2018-01-04T00:40:29.569Z,43.3
2018-01-04T00:41:29.482Z,43.4
2018-01-04T00:42:29.387Z,43.5
2018-01-04T00:43:29.306Z,43.6
2018-01-04T00:44:29.251Z,43.6
2018-01-04T00:45:29.170Z,43.8
2018-01-04T00:46:29.072Z,43.8
2018-01-04T00:47:29.014Z,43.9
2018-01-04T00:48:28.915Z,44
2018-01-04T00:49:28.837Z,44.1
2018-01-04T00:50:28.777Z,44.2
2018-01-04T00:51:28.702Z,44.3
2018-01-04T00:52:28.601Z,44.4
2018-01-04T00:53:28.523Z,44.4
2018-01-04T00:54:28.468Z,44.5
2018-01-04T00:55:28.371Z,44.6
2018-01-04T00:56:28.308Z,44.7
2018-01-04T00:57:28.228Z,44.8
2018-01-04T00:58:28.131Z,44.9
2018-01-04T00:59:28.053Z,44.9
2018-01-04T01:00:27.994Z,45.1
2018-01-04T01:01:27.914Z,44.7
2018-01-04T01:02:27.817Z,44.4
2018-01-04T01:03:27.738Z,44.8
2018-01-04T01:04:27.681Z,44.6
2018-01-04T01:05:27.599Z,44.8
2018-01-04T01:06:27.505Z,44.9
2018-01-04T01:07:27.425Z,44.9
2018-01-04T01:08:27.370Z,45.3
2018-01-04T01:09:27.290Z,45.2
2018-01-04T01:10:27.192Z,45.3
2018-01-04T01:11:27.130Z,45.4
2018-01-04T01:12:27.033Z,45.5
2018-01-04T01:13:26.954Z,45.6
2018-01-04T01:14:26.897Z,45.6
2018-01-04T01:15:26.819Z,45.8
2018-01-04T01:16:26.721Z,45.7
2018-01-04T01:17:26.642Z,45.9
2018-01-04T01:18:26.582Z,45.9
2018-01-04T01:19:26.485Z,46.1
2018-01-04T01:20:26.426Z,46.2
2018-01-04T01:21:26.348Z,46.3
2018-01-04T01:22:26.301Z,46.4
2018-01-04T01:23:26.175Z,46.4
2018-01-04T01:24:26.115Z,46.5
2018-01-04T01:25:26.033Z,46.6
2018-01-04T01:26:25.937Z,46.7
2018-01-04T01:27:25.881Z,46.8
2018-01-04T01:28:25.780Z,46.8
2018-01-04T01:29:25.706Z,46.9
2018-01-04T01:30:25.641Z,47
2018-01-04T01:31:25.565Z,47.1
2018-01-04T01:32:25.468Z,47.2
2018-01-04T01:33:25.388Z,47.3
2018-01-04T01:34:25.330Z,47.3
2018-01-04T01:35:25.250Z,47.4
2018-01-04T01:36:25.156Z,47.5
2018-01-04T01:37:25.074Z,47.6
2018-01-04T01:38:25.067Z,47.6
2018-01-04T01:39:24.938Z,47.8
2018-01-04T01:40:24.839Z,47.8
2018-01-04T01:41:24.760Z,47.9
2018-01-04T01:42:24.701Z,48
2018-01-04T01:43:24.603Z,48.1
2018-01-04T01:44:24.546Z,48.1
2018-01-04T01:45:24.467Z,48.2
2018-01-04T01:46:24.368Z,48.3
2018-01-04T01:47:24.290Z,48.3
2018-01-04T01:48:24.230Z,48.4
2018-01-04T01:49:24.153Z,48.5
2018-01-04T01:50:24.058Z,48.6
2018-01-04T01:51:23.997Z,48.6
2018-01-04T01:52:23.900Z,48.7
2018-01-04T01:53:23.820Z,48.8
2018-01-04T01:54:23.759Z,48.9
2018-01-04T01:55:23.683Z,48.9
2018-01-04T01:56:23.585Z,49
2018-01-04T01:57:23.505Z,49.1
2018-01-04T01:58:23.446Z,49.2
2018-01-04T01:59:23.349Z,49.3
2018-01-04T02:00:23.289Z,49.3
2018-01-04T02:01:23.210Z,48.9
2018-01-04T02:02:23.113Z,48.8
2018-01-04T02:03:23.035Z,49.2
2018-01-04T02:04:22.982Z,48.9
2018-01-04T02:05:22.898Z,49.1
2018-01-04T02:06:22.805Z,49.1
2018-01-04T02:07:22.742Z,49.3
2018-01-04T02:08:22.644Z,49.5
2018-01-04T02:09:22.565Z,49.4
2018-01-04T02:10:22.505Z,49.6
2018-01-04T02:11:22.426Z,49.6
2018-01-04T02:12:22.328Z,49.8
2018-01-04T02:13:22.251Z,49.8
2018-01-04T02:14:22.192Z,49.9
2018-01-04T02:15:22.095Z,49.9
2018-01-04T02:16:22.035Z,50
2018-01-04T02:17:21.958Z,50.2
2018-01-04T02:18:21.864Z,50.2
2018-01-04T02:19:21.782Z,50.3
2018-01-04T02:20:21.728Z,50.4
2018-01-04T02:21:21.643Z,50.4
2018-01-04T02:22:21.548Z,50.5
2018-01-04T02:23:21.488Z,50.6
2018-01-04T02:24:21.389Z,50.7
2018-01-04T02:25:21.311Z,50.7
2018-01-04T02:26:21.252Z,50.8
2018-01-04T02:27:21.177Z,50.9
2018-01-04T02:28:21.075Z,51
2018-01-04T02:29:21.001Z,51.1
2018-01-04T02:30:20.938Z,51.1
2018-01-04T02:31:20.840Z,51.2
2018-01-04T02:32:20.787Z,51.3
2018-01-04T02:33:20.702Z,51.4
2018-01-04T02:34:20.605Z,51.4
2018-01-04T02:35:20.527Z,51.5
2018-01-04T02:36:20.467Z,51.6
2018-01-04T02:37:20.392Z,51.6
2018-01-04T02:38:20.291Z,51.8
2018-01-04T02:39:20.213Z,51.8
2018-01-04T02:40:20.152Z,51.9
2018-01-04T02:41:20.130Z,51.9
2018-01-04T02:42:19.978Z,52
2018-01-04T02:43:19.903Z,52.1
2018-01-04T02:44:19.844Z,52.2
2018-01-04T02:45:19.760Z,52.3
2018-01-04T02:46:19.665Z,52.3
2018-01-04T02:47:19.606Z,52.3
2018-01-04T02:48:19.509Z,52.4
2018-01-04T02:49:19.427Z,52.5
2018-01-04T02:50:19.370Z,52.6
2018-01-04T02:51:19.293Z,52.6
2018-01-04T02:52:19.193Z,52.7
2018-01-04T02:53:19.116Z,52.8
2018-01-04T02:54:19.056Z,52.9
2018-01-04T02:55:18.956Z,52.9
2018-01-04T02:56:18.900Z,53
2018-01-04T02:57:18.819Z,53.1
2018-01-04T02:58:18.721Z,53.2
2018-01-04T02:59:18.643Z,53.2
2018-01-04T03:00:18.582Z,53.3
2018-01-04T03:01:18.508Z,53
2018-01-04T03:02:18.408Z,52.8
2018-01-04T03:03:18.348Z,53.2
2018-01-04T03:04:18.250Z,52.9
2018-01-04T03:05:18.176Z,53.1
2018-01-04T03:06:18.114Z,53.1
2018-01-04T03:07:18.034Z,53.3
2018-01-04T03:08:17.937Z,53.4
2018-01-04T03:09:17.859Z,53.4
2018-01-04T03:10:17.799Z,53.6
2018-01-04T03:11:17.722Z,53.5
2018-01-04T03:12:17.623Z,53.8
2018-01-04T03:13:17.545Z,53.8
2018-01-04T03:14:17.485Z,53.9
2018-01-04T03:15:17.407Z,53.9
2018-01-04T03:16:17.310Z,54.1
2018-01-04T03:17:17.232Z,54.2
2018-01-04T03:18:17.172Z,54.2
2018-01-04T03:19:17.076Z,54.3
2018-01-04T03:20:17.015Z,54.3
2018-01-04T03:21:16.940Z,54.4
2018-01-04T03:22:16.838Z,54.5
2018-01-04T03:23:16.761Z,54.6
2018-01-04T03:24:16.703Z,54.6
2018-01-04T03:25:16.623Z,54.8
2018-01-04T03:26:16.528Z,54.8
2018-01-04T03:27:16.467Z,54.8
2018-01-04T03:28:16.373Z,54.9
2018-01-04T03:29:16.290Z,55
2018-01-04T03:30:16.237Z,55.1
2018-01-04T03:31:16.154Z,55.1
2018-01-04T03:32:16.056Z,55.3
2018-01-04T03:33:16.019Z,55.3
2018-01-04T03:34:15.918Z,55.4
2018-01-04T03:35:15.823Z,55.4
2018-01-04T03:36:15.763Z,55.5
2018-01-04T03:37:15.683Z,55.6
2018-01-04T03:38:15.585Z,55.6
2018-01-04T03:39:15.509Z,55.7
2018-01-04T03:40:15.445Z,55.2
2018-01-04T03:41:15.371Z,54.3
2018-01-04T03:42:15.275Z,54.1
2018-01-04T03:43:15.195Z,53.4
2018-01-04T03:44:15.185Z,52.6
2018-01-04T03:45:15.061Z,51.8
2018-01-04T03:46:14.958Z,51
2018-01-04T03:47:14.880Z,50.3
2018-01-04T03:48:14.821Z,49.5
2018-01-04T03:49:14.741Z,48.5
2018-01-04T03:50:14.643Z,47.6
2018-01-04T03:51:14.585Z,47.2
2018-01-04T03:52:14.495Z,47.3
2018-01-04T03:53:14.412Z,46.9
2018-01-04T03:54:14.350Z,47
2018-01-04T03:55:14.269Z,47.1
2018-01-04T03:56:14.173Z,47.5
2018-01-04T03:57:14.094Z,47.4
2018-01-04T03:58:14.037Z,47.4
2018-01-04T03:59:13.936Z,47.4
2018-01-04T04:00:13.881Z,47.7
2018-01-04T04:01:13.801Z,47.4
2018-01-04T04:02:13.702Z,47.1
2018-01-04T04:03:13.621Z,47.4
2018-01-04T04:04:13.563Z,47.3
2018-01-04T04:05:13.487Z,47.6
2018-01-04T04:06:13.388Z,47.4
2018-01-04T04:07:13.327Z,47.7
2018-01-04T04:08:13.230Z,47.7
2018-01-04T04:09:13.151Z,48
2018-01-04T04:10:13.093Z,47.9
2018-01-04T04:11:13.018Z,48.1
2018-01-04T04:12:12.920Z,48.1
2018-01-04T04:13:12.838Z,47.9
2018-01-04T04:14:12.778Z,47.8
2018-01-04T04:15:12.704Z,48.1
2018-01-04T04:16:12.604Z,48.1
2018-01-04T04:17:12.525Z,48.3
2018-01-04T04:18:12.463Z,48.3
2018-01-04T04:19:12.386Z,48.5
2018-01-04T04:20:12.290Z,48.5
2018-01-04T04:21:12.209Z,48.1
2018-01-04T04:22:12.153Z,48.2
2018-01-04T04:23:12.055Z,48.3
2018-01-04T04:24:11.993Z,48.3
2018-01-04T04:25:11.921Z,48.5
2018-01-04T04:26:11.818Z,48.4
2018-01-04T04:27:11.741Z,48.8
2018-01-04T04:28:11.682Z,48.6
2018-01-04T04:29:11.603Z,48.9
2018-01-04T04:30:11.508Z,48.9
2018-01-04T04:31:11.445Z,49
2018-01-04T04:32:11.350Z,48.7
2018-01-04T04:33:11.270Z,48.9
2018-01-04T04:34:11.212Z,48.9
2018-01-04T04:35:11.133Z,48.8
2018-01-04T04:36:11.035Z,49.1
2018-01-04T04:37:10.957Z,49
2018-01-04T04:38:10.899Z,49.2
2018-01-04T04:39:10.802Z,49.3
2018-01-04T04:40:10.742Z,49.5
2018-01-04T04:41:10.663Z,49.4
2018-01-04T04:42:10.564Z,49.7
2018-01-04T04:43:10.486Z,49.8
2018-01-04T04:44:10.426Z,49.9
2018-01-04T04:45:10.350Z,49.9
2018-01-04T04:46:10.249Z,50.1
2018-01-04T04:47:10.173Z,50.1
2018-01-04T04:48:10.163Z,49.8
2018-01-04T04:49:10.037Z,49.6
2018-01-04T04:50:09.942Z,49.1
2018-01-04T04:51:09.857Z,48.7
2018-01-04T04:52:09.805Z,48.2
2018-01-04T04:53:09.724Z,48.3
2018-01-04T04:54:09.622Z,48.3
2018-01-04T04:55:09.567Z,48.1
2018-01-04T04:56:09.469Z,47.8
2018-01-04T04:57:09.386Z,47.8
2018-01-04T04:58:09.336Z,47.9
2018-01-04T04:59:09.250Z,47.7
2018-01-04T05:00:09.153Z,46.6
2018-01-04T05:01:09.080Z,45.1
2018-01-04T05:02:09.018Z,44.2
2018-01-04T05:03:08.922Z,44.3
2018-01-04T05:04:08.859Z,43.8
2018-01-04T05:05:08.780Z,43.6
2018-01-04T05:06:08.685Z,43.6
2018-01-04T05:07:08.608Z,44.2
2018-01-04T05:08:08.554Z,44.3
2018-01-04T05:09:08.488Z,44.3
2018-01-04T05:10:08.398Z,44.3
2018-01-04T05:11:15.165Z,44.7
2018-01-04T05:12:15.012Z,45
2018-01-04T05:13:14.930Z,44.8
2018-01-04T05:14:14.872Z,44.8
2018-01-04T05:15:14.792Z,44.4
2018-01-04T05:16:14.696Z,44.8
2018-01-04T05:17:14.617Z,44.5
2018-01-04T05:18:14.557Z,44.3
2018-01-04T05:19:14.481Z,44.6
2018-01-04T05:20:14.382Z,44.5
2018-01-04T05:21:14.306Z,44.9
2018-01-04T05:22:14.247Z,44.8
2018-01-04T05:23:14.171Z,45.2
2018-01-04T05:24:14.069Z,45.1
2018-01-04T05:25:13.989Z,45.4
2018-01-04T05:26:13.933Z,45.5
2018-01-04T05:27:13.834Z,45.7
2018-01-04T05:28:13.774Z,45.8
2018-01-04T05:29:13.697Z,45.9
2018-01-04T05:30:13.598Z,46
2018-01-04T05:31:13.524Z,46.1
2018-01-04T05:32:13.463Z,46.4
2018-01-04T05:33:13.383Z,46.4
2018-01-04T05:34:13.286Z,46.6
2018-01-04T05:35:13.230Z,46.6
2018-01-04T05:36:13.129Z,46.8
2018-01-04T05:37:13.051Z,46.9
2018-01-04T05:38:12.992Z,47
2018-01-04T05:39:12.917Z,47.1
2018-01-04T05:40:12.815Z,47.2
2018-01-04T05:41:12.737Z,47.3
2018-01-04T05:42:12.681Z,47.4
2018-01-04T05:43:12.581Z,47.6
2018-01-04T05:44:12.523Z,47.6
2018-01-04T05:45:12.443Z,47.8
2018-01-04T05:46:12.345Z,47.9
2018-01-04T05:47:12.267Z,48
2018-01-04T05:48:12.257Z,48.1
2018-01-04T05:49:12.133Z,48.2
2018-01-04T05:50:12.032Z,48.3
2018-01-04T05:51:11.953Z,48.4
2018-01-04T05:52:11.893Z,48.5
2018-01-04T05:53:11.819Z,48.6
2018-01-04T05:54:11.718Z,48.7
2018-01-04T05:55:11.640Z,48.8
2018-01-04T05:56:11.582Z,48.9
2018-01-04T05:57:11.501Z,49
2018-01-04T05:58:11.403Z,49.1
2018-01-04T05:59:11.348Z,49.2
2018-01-04T06:00:11.248Z,49.3
2018-01-04T06:01:11.169Z,49.1
2018-01-04T06:02:11.109Z,48.6
2018-01-04T06:03:11.035Z,49.1
2018-01-04T06:04:10.934Z,48.9
2018-01-04T06:05:10.857Z,49.1
2018-01-04T06:06:10.796Z,49.1
2018-01-04T06:07:10.700Z,49.4
2018-01-04T06:08:10.640Z,49.5
2018-01-04T06:09:10.560Z,49.6
2018-01-04T06:10:10.464Z,49.7
2018-01-04T06:11:10.386Z,49.8
2018-01-04T06:12:10.326Z,50
2018-01-04T06:13:10.249Z,50
2018-01-04T06:14:10.153Z,50.2
2018-01-04T06:15:10.093Z,50.2
2018-01-04T06:16:09.993Z,50.4
2018-01-04T06:17:09.917Z,50.3
2018-01-04T06:18:09.856Z,50.4
2018-01-04T06:19:09.780Z,50.3
2018-01-04T06:20:09.679Z,50.3
2018-01-04T06:21:09.601Z,50.4
2018-01-04T06:22:09.542Z,50.4
2018-01-04T06:23:09.463Z,50.4
2018-01-04T06:24:09.366Z,50.3
2018-01-04T06:25:09.288Z,50.3
2018-01-04T06:26:09.229Z,50.4
2018-01-04T06:27:09.149Z,50.4
2018-01-04T06:28:09.052Z,50.4
2018-01-04T06:29:08.974Z,50.5
2018-01-04T06:30:08.915Z,50.4
2018-01-04T06:31:08.820Z,50.4
2018-01-04T06:32:08.765Z,50.4
2018-01-04T06:33:08.682Z,50.4
2018-01-04T06:34:08.581Z,50.4
2018-01-04T06:35:08.502Z,50.4
2018-01-04T06:36:08.446Z,50.4
2018-01-04T06:37:08.364Z,50.4
2018-01-04T06:38:08.268Z,50.4
2018-01-04T06:39:08.207Z,50.4
2018-01-04T06:40:08.109Z,50.4
2018-01-04T06:41:08.033Z,50.4
2018-01-04T06:42:07.973Z,50.3
2018-01-04T06:43:07.898Z,50.4
2018-01-04T06:44:07.796Z,50.4
2018-01-04T06:45:07.719Z,50.4
2018-01-04T06:46:07.657Z,50.4
2018-01-04T06:47:07.560Z,50.4
2018-01-04T06:48:07.501Z,50.4
2018-01-04T06:49:07.422Z,50.5
2018-01-04T06:50:07.326Z,50.4
2018-01-04T06:51:07.297Z,50.4
2018-01-04T06:52:07.188Z,50.6
2018-01-04T06:53:07.110Z,50.5
2018-01-04T06:54:07.012Z,50.4
2018-01-04T06:55:06.936Z,50.4
2018-01-04T06:56:06.872Z,50.4
2018-01-04T06:57:06.795Z,50.5
2018-01-04T06:58:06.713Z,50.5
2018-01-04T06:59:06.617Z,50.5
2018-01-04T07:00:06.559Z,50.6
2018-01-04T07:01:06.480Z,50.2
2018-01-04T07:02:06.381Z,49.6
2018-01-04T07:03:06.324Z,49.9
2018-01-04T07:04:06.227Z,49.8
2018-01-04T07:05:06.147Z,49.8
2018-01-04T07:06:06.087Z,49.8
2018-01-04T07:07:06.008Z,49.9
2018-01-04T07:08:05.911Z,50
2018-01-04T07:09:05.831Z,50
2018-01-04T07:10:05.775Z,50
2018-01-04T07:11:05.675Z,49.9
2018-01-04T07:12:05.618Z,50.1
2018-01-04T07:13:05.538Z,50.1
2018-01-04T07:14:05.440Z,50.1
2018-01-04T07:15:05.362Z,50
2018-01-04T07:16:05.302Z,50.1
2018-01-04T07:17:05.226Z,50.1
2018-01-04T07:18:05.129Z,50.1
2018-01-04T07:19:05.070Z,50
2018-01-04T07:20:04.971Z,49.9
2018-01-04T07:21:04.890Z,50.1
2018-01-04T07:22:04.833Z,50
2018-01-04T07:23:04.757Z,50.1
2018-01-04T07:24:04.656Z,50.1
2018-01-04T07:25:04.576Z,50.1
2018-01-04T07:26:04.518Z,50.1
2018-01-04T07:27:04.442Z,50.1
2018-01-04T07:28:04.342Z,50.1
2018-01-04T07:29:04.261Z,50.1
2018-01-04T07:30:04.203Z,50.1
2018-01-04T07:31:04.124Z,50.1
2018-01-04T07:32:04.029Z,50.1
2018-01-04T07:33:03.949Z,50.1
2018-01-04T07:34:03.891Z,50.2
2018-01-04T07:35:03.792Z,50.1
2018-01-04T07:36:03.730Z,50.2
2018-01-04T07:37:03.658Z,50.1
2018-01-04T07:38:03.556Z,50
2018-01-04T07:39:03.479Z,50.1
2018-01-04T07:40:03.417Z,50.2
2018-01-04T07:41:03.339Z,50
2018-01-04T07:42:03.244Z,50.1
2018-01-04T07:43:03.181Z,50.2
2018-01-04T07:44:03.086Z,50.1
2018-01-04T07:45:03.006Z,50.3
2018-01-04T07:46:02.948Z,50.1
2018-01-04T07:47:02.867Z,50.1
2018-01-04T07:48:02.770Z,50.1
2018-01-04T07:49:02.692Z,50.2
2018-01-04T07:50:02.632Z,50.1
2018-01-04T07:51:02.536Z,50.1
2018-01-04T07:52:02.474Z,50.3
2018-01-04T07:53:02.395Z,50.2
2018-01-04T07:54:02.298Z,50.2
2018-01-04T07:55:02.270Z,50.1
2018-01-04T07:56:02.161Z,50.1
2018-01-04T07:57:02.082Z,50.1
2018-01-04T07:58:01.984Z,50.3
2018-01-04T07:59:01.905Z,50.4
2018-01-04T08:00:01.847Z,50.4
2018-01-04T08:01:01.769Z,49.9
2018-01-04T08:02:01.669Z,49.3
2018-01-04T08:03:01.591Z,49.8
2018-01-04T08:04:01.533Z,49.9
2018-01-04T08:05:01.452Z,49.6
2018-01-04T08:06:01.355Z,49.6
2018-01-04T08:07:01.297Z,49.6
2018-01-04T08:08:01.197Z,49.8
2018-01-04T08:09:01.121Z,49.6
2018-01-04T08:10:01.063Z,49.7
2018-01-04T08:11:00.984Z,49.6
2018-01-04T08:12:00.886Z,49.9
2018-01-04T08:13:00.805Z,49.7
2018-01-04T08:14:00.751Z,49.8
2018-01-04T08:15:00.651Z,49.7
2018-01-04T08:16:00.590Z,49.7
2018-01-04T08:17:00.510Z,50.1
2018-01-04T08:18:00.412Z,49.8
2018-01-04T08:19:00.338Z,49.9
2018-01-04T08:20:00.274Z,50
2018-01-04T08:21:00.201Z,49.8
2018-01-04T08:22:00.100Z,50.1
2018-01-04T08:23:00.095Z,49.8
2018-01-04T08:23:59.945Z,49.8
2018-01-04T08:24:59.864Z,49.8
2018-01-04T08:25:59.808Z,49.9
2018-01-04T08:26:59.727Z,49.9
2018-01-04T08:27:59.629Z,49.9
2018-01-04T08:28:59.551Z,49.9
2018-01-04T08:29:59.490Z,49.9
2018-01-04T08:30:59.412Z,49.9
2018-01-04T08:31:59.314Z,49.9
2018-01-04T08:32:59.236Z,49.9
2018-01-04T08:33:59.175Z,49.9
2018-01-04T08:34:59.098Z,49.9
2018-01-04T08:35:59.001Z,49.9
2018-01-04T08:36:58.921Z,49.9
2018-01-04T08:37:58.867Z,49.8
2018-01-04T08:38:58.764Z,49.9
2018-01-04T08:39:58.705Z,49.9
2018-01-04T08:40:58.628Z,49.9
2018-01-04T08:41:58.528Z,49.9
2018-01-04T08:42:58.450Z,49.9
2018-01-04T08:43:58.393Z,49.9
2018-01-04T08:44:58.311Z,49.9
2018-01-04T08:45:58.214Z,49.9
2018-01-04T08:46:58.156Z,49.9
2018-01-04T08:47:58.058Z,49.9
2018-01-04T08:48:57.978Z,49.9
2018-01-04T08:49:57.921Z,49.9
2018-01-04T08:50:57.842Z,49.9
2018-01-04T08:51:57.743Z,49.9
2018-01-04T08:52:57.664Z,49.9
2018-01-04T08:53:57.606Z,49.9
2018-01-04T08:54:57.507Z,49.9
2018-01-04T08:55:57.447Z,49.9
2018-01-04T08:56:57.373Z,49.9
2018-01-04T08:57:57.321Z,49.9
2018-01-04T08:58:57.194Z,49.9
2018-01-04T08:59:57.132Z,49.9
2018-01-04T09:00:57.056Z,49.9
2018-01-04T09:01:56.956Z,49.3
2018-01-04T09:02:56.878Z,49.6
2018-01-04T09:03:56.818Z,49.5
2018-01-04T09:04:56.741Z,49.4
2018-01-04T09:05:56.642Z,49.4
2018-01-04T09:06:56.565Z,49.2
2018-01-04T09:07:56.505Z,49.7
2018-01-04T09:08:56.425Z,49.4
2018-01-04T09:09:56.332Z,49.5
2018-01-04T09:10:56.273Z,49.5
2018-01-04T09:11:56.169Z,49.6
2018-01-04T09:12:56.093Z,49.6
2018-01-04T09:13:56.032Z,49.4
2018-01-04T09:14:55.953Z,49.4
2018-01-04T09:15:55.857Z,49.4
2018-01-04T09:16:55.777Z,49.6
2018-01-04T09:17:55.718Z,49.7
2018-01-04T09:18:55.621Z,49.6
2018-01-04T09:19:55.564Z,49.4
2018-01-04T09:20:55.482Z,49.5
2018-01-04T09:21:55.385Z,49.6
2018-01-04T09:22:55.306Z,49.6
2018-01-04T09:23:55.247Z,49.6
2018-01-04T09:24:55.178Z,49.7
2018-01-04T09:25:55.071Z,49.5
2018-01-04T09:26:55.011Z,49.8
2018-01-04T09:27:54.914Z,49.6
2018-01-04T09:28:54.835Z,49.7
2018-01-04T09:29:54.780Z,49.6
2018-01-04T09:30:54.698Z,49.8
2018-01-04T09:31:54.601Z,49.6
2018-01-04T09:32:54.521Z,49.5
2018-01-04T09:33:54.465Z,49.7
2018-01-04T09:34:54.385Z,49.6
2018-01-04T09:35:54.336Z,49.7
2018-01-04T09:36:54.206Z,49.6
2018-01-04T09:37:54.145Z,49.6
2018-01-04T09:38:54.068Z,49.6
2018-01-04T09:39:53.973Z,49.6
2018-01-04T09:40:53.892Z,49.7
2018-01-04T09:41:53.834Z,49.7
2018-01-04T09:42:53.735Z,49.6
2018-01-04T09:43:53.678Z,49.7
2018-01-04T09:44:53.598Z,49.7
2018-01-04T09:45:53.500Z,49.7
2018-01-04T09:46:53.421Z,49.7
2018-01-04T09:47:53.365Z,49.7
2018-01-04T09:48:53.283Z,49.7
2018-01-04T09:49:53.185Z,49.7
2018-01-04T09:50:53.124Z,49.7
2018-01-04T09:51:53.027Z,49.7
2018-01-04T09:52:52.949Z,49.7
2018-01-04T09:53:52.891Z,49.7
2018-01-04T09:54:52.815Z,49.7
2018-01-04T09:55:52.713Z,49.8
2018-01-04T09:56:52.635Z,49.8
2018-01-04T09:57:52.575Z,49.8
2018-01-04T09:58:52.478Z,49.8
2018-01-04T09:59:52.420Z,49.8
2018-01-04T10:00:52.389Z,49.7
2018-01-04T10:01:52.241Z,49.2
2018-01-04T10:02:52.169Z,49.4
2018-01-04T10:03:52.104Z,49.6
2018-01-04T10:04:52.028Z,49.3
2018-01-04T10:05:51.928Z,49.5
2018-01-04T10:06:51.851Z,49.3
2018-01-04T10:07:51.789Z,49.6
2018-01-04T10:08:51.711Z,49.7
2018-01-04T10:09:51.612Z,49.5
2018-01-04T10:10:51.535Z,49.7
2018-01-04T10:11:51.476Z,49.6
2018-01-04T10:12:51.396Z,49.9
2018-01-04T10:13:51.299Z,49.8
2018-01-04T10:14:51.241Z,49.7
2018-01-04T10:15:51.144Z,49.9
2018-01-04T10:16:51.065Z,49.9
2018-01-04T10:17:51.004Z,50
2018-01-04T10:18:50.925Z,49.9
2018-01-04T10:19:50.827Z,49.9
2018-01-04T10:20:50.749Z,50
2018-01-04T10:21:50.691Z,50
2018-01-04T10:22:50.592Z,50.1
2018-01-04T10:23:50.534Z,50.1
2018-01-04T10:24:50.452Z,50.1
2018-01-04T10:25:50.357Z,50.2
2018-01-04T10:26:50.281Z,50.2
2018-01-04T10:27:50.218Z,50.3
2018-01-04T10:28:50.143Z,50.3
2018-01-04T10:29:50.043Z,50.3
2018-01-04T10:30:49.987Z,50.4
2018-01-04T10:31:49.885Z,50.4
2018-01-04T10:32:49.813Z,50.4
2018-01-04T10:33:49.749Z,50.4
2018-01-04T10:34:49.670Z,50.4
2018-01-04T10:35:49.571Z,50.5
2018-01-04T10:36:49.494Z,50.6
2018-01-04T10:37:49.433Z,50.6
2018-01-04T10:38:49.335Z,50.6
2018-01-04T10:39:49.279Z,50.6
2018-01-04T10:40:49.197Z,50.6
2018-01-04T10:41:49.099Z,50.7
2018-01-04T10:42:49.021Z,50.7
2018-01-04T10:43:48.963Z,50.8
2018-01-04T10:44:48.892Z,50.8
2018-01-04T10:45:48.784Z,50.8
2018-01-04T10:46:48.724Z,50.8
2018-01-04T10:47:48.629Z,50.8
2018-01-04T10:48:48.549Z,50.9
2018-01-04T10:49:48.492Z,50.9
2018-01-04T10:50:48.412Z,50.9
2018-01-04T10:51:48.312Z,50.9
2018-01-04T10:52:48.234Z,50.9
2018-01-04T10:53:48.172Z,50.9
2018-01-04T10:54:48.077Z,51
2018-01-04T10:55:48.017Z,51
2018-01-04T10:56:47.940Z,51
2018-01-04T10:57:47.843Z,51.1
2018-01-04T10:58:47.762Z,51.1
2018-01-04T10:59:47.705Z,51.1
2018-01-04T11:00:47.624Z,51.1
2018-01-04T11:01:47.526Z,50.7
2018-01-04T11:02:47.468Z,50.9
2018-01-04T11:03:47.369Z,51.1
2018-01-04T11:04:47.340Z,50.7
2018-01-04T11:05:47.230Z,50.9
2018-01-04T11:06:47.152Z,50.8
2018-01-04T11:07:47.103Z,50.9
2018-01-04T11:08:46.977Z,51.1
2018-01-04T11:09:46.919Z,50.9
2018-01-04T11:10:46.839Z,50.9
2018-01-04T11:11:46.740Z,51
2018-01-04T11:12:46.662Z,51
2018-01-04T11:13:46.608Z,51.1
2018-01-04T11:14:46.525Z,51.1
2018-01-04T11:15:46.426Z,51
2018-01-04T11:16:46.348Z,51.1
2018-01-04T11:17:46.288Z,51.1
2018-01-04T11:18:46.192Z,51.2
2018-01-04T11:19:46.133Z,51.1
2018-01-04T11:20:46.052Z,51.1
2018-01-04T11:21:45.955Z,51.2
2018-01-04T11:22:45.881Z,51.2
2018-01-04T11:23:45.816Z,51.2
2018-01-04T11:24:45.740Z,51.2
2018-01-04T11:25:45.639Z,51.2
2018-01-04T11:26:45.586Z,51.2
2018-01-04T11:27:45.484Z,51.2
2018-01-04T11:28:45.404Z,51.2
2018-01-04T11:29:45.344Z,51.3
2018-01-04T11:30:45.266Z,51.3
2018-01-04T11:31:45.169Z,51.3
2018-01-04T11:32:45.091Z,51.3
2018-01-04T11:33:45.033Z,51.3
2018-01-04T11:34:44.934Z,51.3
2018-01-04T11:35:44.873Z,51.3
2018-01-04T11:36:44.801Z,51.3
2018-01-04T11:37:44.699Z,51.3
2018-01-04T11:38:44.622Z,51.3
2018-01-04T11:39:44.561Z,51.3
2018-01-04T11:40:44.479Z,51.3
2018-01-04T11:41:44.384Z,51.3
2018-01-04T11:42:44.306Z,51.3
2018-01-04T11:43:44.248Z,51.3
2018-01-04T11:44:44.166Z,51.3
2018-01-04T11:45:44.068Z,51.4
2018-01-04T11:46:43.992Z,51.4
2018-01-04T11:47:43.930Z,51.4
2018-01-04T11:48:43.853Z,51.4
2018-01-04T11:49:43.755Z,51.4
2018-01-04T11:50:43.695Z,51.4
2018-01-04T11:51:43.597Z,51.4
2018-01-04T11:52:43.518Z,51.4
2018-01-04T11:53:43.459Z,51.4
2018-01-04T11:54:43.381Z,51.4
2018-01-04T11:55:43.284Z,51.4
2018-01-04T11:56:43.202Z,51.4
2018-01-04T11:57:43.144Z,51.4
2018-01-04T11:58:43.046Z,51.4
2018-01-04T11:59:42.989Z,51.4
2018-01-04T12:00:42.910Z,51.4
2018-01-04T12:01:42.811Z,51
2018-01-04T12:02:42.735Z,51.2
2018-01-04T12:03:42.683Z,51.4
2018-01-04T12:04:42.595Z,51.1
2018-01-04T12:05:42.496Z,51.1
2018-01-04T12:06:42.438Z,51.2
2018-01-04T12:07:42.389Z,51.1
2018-01-04T12:08:42.260Z,51.3
2018-01-04T12:09:42.199Z,51.3
2018-01-04T12:10:42.121Z,51.2
2018-01-04T12:11:42.025Z,51.3
2018-01-04T12:12:41.947Z,51.1
2018-01-04T12:13:41.887Z,51.3
2018-01-04T12:14:41.823Z,51.3
2018-01-04T12:15:41.709Z,51.2
2018-01-04T12:16:41.631Z,51.2
2018-01-04T12:17:41.585Z,51.3
2018-01-04T12:18:41.495Z,51.3
2018-01-04T12:19:41.398Z,51.4
2018-01-04T12:20:41.317Z,51.3
2018-01-04T12:21:41.257Z,51.3
2018-01-04T12:22:41.161Z,51.3
2018-01-04T12:23:41.104Z,51.3
2018-01-04T12:24:41.021Z,51.3
2018-01-04T12:25:40.929Z,51.3
2018-01-04T12:26:40.844Z,51.3
2018-01-04T12:27:40.785Z,51.3
2018-01-04T12:28:40.712Z,51.3
2018-01-04T12:29:40.610Z,51.3
2018-01-04T12:30:40.552Z,51.4
2018-01-04T12:31:40.459Z,51.3
2018-01-04T12:32:40.389Z,51.3
2018-01-04T12:33:40.338Z,51.3
2018-01-04T12:34:40.268Z,51.3
2018-01-04T12:35:40.182Z,51.3
2018-01-04T12:36:40.113Z,51.3
2018-01-04T12:37:40.064Z,51.3
2018-01-04T12:38:39.973Z,51.3
2018-01-04T12:39:39.922Z,51.3
2018-01-04T12:40:39.854Z,51.3
2018-01-04T12:41:39.765Z,51.3
2018-01-04T12:42:39.698Z,51.3
2018-01-04T12:43:39.647Z,51.3
2018-01-04T12:44:39.575Z,51.3
2018-01-04T12:45:39.491Z,51.3
2018-01-04T12:46:39.419Z,51.4
2018-01-04T12:47:39.369Z,51.3
2018-01-04T12:48:39.299Z,51.3
2018-01-04T12:49:39.215Z,51.3
2018-01-04T12:50:39.145Z,51.3
2018-01-04T12:51:39.091Z,51.3
2018-01-04T12:52:39.024Z,51.3
2018-01-04T12:53:38.936Z,51.3
2018-01-04T12:54:38.882Z,51.3
2018-01-04T12:55:38.795Z,51.3
2018-01-04T12:56:38.725Z,51.3
2018-01-04T12:57:38.676Z,51.3
2018-01-04T12:58:38.609Z,51.3
2018-01-04T12:59:38.517Z,51.3
2018-01-04T13:00:38.448Z,51.3
2018-01-04T13:01:38.401Z,50.9
2018-01-04T13:02:38.309Z,51.1
2018-01-04T13:03:38.258Z,51.4
2018-01-04T13:04:38.191Z,51
2018-01-04T13:05:38.102Z,50.9
2018-01-04T13:06:38.033Z,51
2018-01-04T13:07:37.983Z,50.9
2018-01-04T13:08:37.922Z,51.1
2018-01-04T13:09:37.825Z,51.3
2018-01-04T13:10:37.775Z,51
2018-01-04T13:11:37.687Z,51.1
2018-01-04T13:12:37.616Z,51
2018-01-04T13:13:37.618Z,50.9
2018-01-04T13:14:37.495Z,51.2
2018-01-04T13:15:37.409Z,51.1
2018-01-04T13:16:37.340Z,50.9
2018-01-04T13:17:37.291Z,51.1
2018-01-04T13:18:37.219Z,51
2018-01-04T13:19:37.132Z,51.1
2018-01-04T13:20:37.062Z,51.1